createdAt,value
2019-06-01T00:01:05.653Z,17.70
2019-06-01T00:05:09.965Z,17.60
2019-06-01T00:09:14.192Z,17.50
2019-06-01T00:13:18.445Z,17.40
2019-06-01T00:17:22.727Z,17.40
2019-06-01T00:21:26.958Z,17.30
2019-06-01T00:25:31.187Z,17.20
2019-06-01T00:29:35.431Z,17.20
2019-06-01T00:33:39.680Z,17.10
2019-06-01T00:37:43.875Z,17.00
2019-06-01T00:41:48.177Z,17.00
2019-06-01T00:45:53.137Z,17.00
2019-06-01T00:49:57.575Z,16.90
2019-06-01T00:54:01.805Z,16.80
2019-06-01T00:58:06.048Z,16.70
2019-06-01T01:02:10.257Z,16.70
2019-06-01T01:06:14.529Z,16.60
2019-06-01T01:10:19.449Z,16.60
2019-06-01T01:14:23.671Z,16.50
2019-06-01T01:18:27.904Z,16.40
2019-06-01T01:22:32.099Z,16.30
2019-06-01T01:26:36.342Z,16.30
2019-06-01T01:30:40.808Z,16.20
2019-06-01T01:34:45.027Z,16.10
2019-06-01T01:38:50.473Z,16.00
2019-06-01T01:42:54.790Z,16.00
2019-06-01T01:46:59.144Z,15.90
2019-06-01T01:51:03.353Z,15.90
2019-06-01T01:55:07.706Z,15.80
2019-06-01T01:59:11.948Z,15.70
2019-06-01T02:03:16.155Z,15.70
2019-06-01T02:07:20.507Z,15.60
2019-06-01T02:11:24.805Z,15.60
2019-06-01T02:15:29.030Z,15.60
2019-06-01T02:19:36.434Z,15.50
2019-06-01T02:23:39.106Z,15.40
2019-06-01T02:27:43.327Z,15.40
2019-06-01T02:31:47.551Z,15.30
2019-06-01T02:35:51.783Z,15.20
2019-06-01T02:39:56.762Z,15.10
2019-06-01T02:44:01.668Z,15.10
2019-06-01T02:48:07.003Z,15.00
2019-06-01T02:52:11.259Z,14.90
2019-06-01T02:56:15.483Z,14.90
2019-06-01T03:00:41.100Z,14.80
2019-06-01T03:04:46.395Z,14.80
2019-06-01T03:08:52.630Z,14.70
2019-06-01T03:12:58.183Z,14.60
2019-06-01T03:17:03.701Z,14.50
2019-06-01T03:21:09.290Z,14.50
2019-06-01T03:25:13.597Z,14.50
2019-06-01T03:29:20.157Z,14.50
2019-06-01T03:33:24.364Z,14.40
2019-06-01T03:37:28.660Z,14.40
2019-06-01T03:41:33.493Z,14.40
2019-06-01T03:45:37.707Z,14.40
2019-06-01T03:49:41.947Z,14.40
2019-06-01T03:53:46.234Z,14.40
2019-06-01T03:57:50.550Z,14.40
2019-06-01T04:01:54.891Z,14.40
2019-06-01T04:05:59.123Z,14.40
2019-06-01T04:10:03.898Z,14.50
2019-06-01T04:14:08.185Z,14.50
2019-06-01T04:18:13.999Z,14.50
2019-06-01T04:22:18.423Z,14.50
2019-06-01T04:26:22.854Z,14.50
2019-06-01T04:30:27.976Z,14.50
2019-06-01T04:34:35.587Z,14.60
2019-06-01T04:38:38.153Z,14.60
2019-06-01T04:42:42.377Z,14.70
2019-06-01T04:46:46.609Z,14.70
2019-06-01T04:50:51.043Z,14.80
2019-06-01T04:54:55.237Z,14.90
2019-06-01T04:58:59.477Z,14.90
2019-06-01T05:03:06.741Z,15.00
2019-06-01T05:07:09.613Z,15.10
2019-06-01T05:11:13.948Z,15.10
2019-06-01T05:15:19.401Z,15.20
2019-06-01T05:19:23.640Z,15.30
2019-06-01T05:23:27.943Z,15.40
2019-06-01T05:27:32.171Z,15.50
2019-06-01T05:31:36.403Z,15.70
2019-06-01T05:35:40.609Z,15.80
2019-06-01T05:39:44.842Z,15.90
2019-06-01T05:43:49.078Z,16.00
2019-06-01T05:47:53.313Z,16.10
2019-06-01T05:51:57.933Z,16.20
2019-06-01T05:56:02.268Z,16.30
2019-06-01T06:00:07.332Z,16.40
2019-06-01T06:04:11.679Z,16.50
2019-06-01T06:08:16.026Z,16.80
2019-06-01T06:12:21.522Z,16.90
2019-06-01T06:16:26.121Z,17.00
2019-06-01T06:20:30.342Z,17.10
2019-06-01T06:24:35.218Z,17.20
2019-06-01T06:28:39.473Z,17.30
2019-06-01T06:32:43.691Z,17.40
2019-06-01T06:36:47.939Z,17.60
2019-06-01T06:40:52.132Z,17.70
2019-06-01T06:44:57.105Z,17.80
2019-06-01T06:49:01.317Z,17.90
2019-06-01T06:53:05.649Z,18.00
2019-06-01T06:57:09.868Z,18.20
2019-06-01T07:01:14.077Z,18.30
2019-06-01T07:05:19.279Z,18.50
2019-06-01T07:09:24.077Z,18.60
2019-06-01T07:13:28.360Z,18.70
2019-06-01T07:17:32.586Z,18.90
2019-06-01T07:21:37.223Z,19.00
2019-06-01T07:25:41.537Z,19.10
2019-06-01T07:29:45.793Z,19.20
2019-06-01T07:37:53.672Z,19.50
2019-06-01T07:41:58.007Z,19.60
2019-06-01T07:46:02.373Z,19.70
2019-06-01T07:50:06.783Z,19.80
2019-06-01T07:54:11.003Z,19.90
2019-06-01T07:58:15.250Z,20.00
2019-06-01T08:02:23.308Z,20.20
2019-06-01T08:06:26.115Z,20.30
2019-06-01T08:10:31.642Z,20.40
2019-06-01T08:14:35.959Z,20.50
2019-06-01T08:18:40.185Z,20.60
2019-06-01T08:22:44.393Z,20.80
2019-06-01T08:26:48.616Z,20.90
2019-06-01T08:30:52.840Z,21.00
2019-06-01T08:35:08.113Z,21.10
2019-06-01T08:39:03.036Z,21.20
2019-06-01T08:43:07.238Z,21.30
2019-06-01T08:47:12.176Z,21.50
2019-06-01T08:51:16.409Z,21.60
2019-06-01T08:55:20.644Z,21.80
2019-06-01T08:59:26.153Z,22.00
2019-06-01T09:03:31.836Z,22.10
2019-06-01T09:07:36.265Z,22.30
2019-06-01T09:11:40.500Z,22.30
2019-06-01T09:15:44.777Z,22.50
2019-06-01T09:19:49.021Z,22.70
2019-06-01T09:23:53.256Z,22.90
2019-06-01T09:27:57.482Z,23.10
2019-06-01T09:32:01.797Z,23.30
2019-06-01T09:36:06.046Z,23.50
2019-06-01T09:40:10.281Z,23.60
2019-06-01T09:44:14.518Z,23.80
2019-06-01T09:48:18.744Z,23.90
2019-06-01T09:52:22.984Z,24.00
2019-06-01T09:56:29.017Z,24.20
2019-06-01T10:00:34.712Z,24.30
2019-06-01T10:04:40.023Z,24.50
2019-06-01T10:08:44.233Z,24.70
2019-06-01T10:12:48.544Z,24.70
2019-06-01T10:16:52.889Z,24.90
2019-06-01T10:20:57.111Z,25.00
2019-06-01T10:25:01.369Z,25.10
2019-06-01T10:29:05.714Z,25.20
2019-06-01T10:33:09.936Z,25.30
2019-06-01T10:37:14.172Z,25.50
2019-06-01T10:41:18.411Z,25.70
2019-06-01T10:45:22.808Z,25.90
2019-06-01T10:49:27.032Z,26.10
2019-06-01T10:53:43.630Z,26.20
2019-06-01T10:57:47.597Z,26.40
2019-06-01T11:01:51.852Z,26.60
2019-06-01T11:05:56.200Z,26.70
2019-06-01T11:10:00.423Z,26.80
2019-06-01T11:14:04.634Z,26.80
2019-06-01T11:18:08.860Z,27.00
2019-06-01T11:22:13.093Z,27.00
2019-06-01T11:26:17.339Z,27.10
2019-06-01T11:30:21.779Z,27.10
2019-06-01T11:34:26.033Z,27.10
2019-06-01T11:38:30.284Z,27.20
2019-06-01T11:42:35.076Z,27.30
2019-06-01T11:46:39.375Z,27.40
2019-06-01T11:50:43.620Z,27.50
2019-06-01T11:54:47.873Z,27.60
2019-06-01T11:58:52.116Z,27.80
2019-06-01T12:02:56.727Z,27.90
2019-06-01T12:07:16.167Z,28.00
2019-06-01T12:11:07.160Z,28.20
2019-06-01T12:15:12.071Z,28.30
2019-06-01T12:19:16.356Z,28.40
2019-06-01T12:23:20.581Z,28.50
2019-06-01T12:27:24.818Z,28.60
2019-06-01T12:31:29.068Z,28.70
2019-06-01T12:35:33.486Z,28.80
2019-06-01T12:39:38.310Z,28.80
2019-06-01T12:43:45.465Z,28.80
2019-06-01T12:47:55.603Z,28.90
2019-06-01T12:51:56.643Z,28.80
2019-06-01T12:56:00.951Z,28.80
2019-06-01T13:00:06.231Z,28.80
2019-06-01T13:04:10.470Z,28.60
2019-06-01T13:08:14.699Z,28.70
2019-06-01T13:12:18.994Z,28.70
2019-06-01T13:16:24.905Z,28.80
2019-06-01T13:20:29.195Z,28.90
2019-06-01T13:24:34.308Z,29.00
2019-06-01T13:28:38.696Z,29.10
2019-06-01T13:32:44.029Z,29.20
2019-06-01T13:36:49.023Z,29.20
2019-06-01T13:40:53.375Z,29.30
2019-06-01T13:44:57.606Z,29.40
2019-06-01T13:49:01.855Z,29.60
2019-06-01T13:53:06.183Z,29.60
2019-06-01T13:57:10.503Z,29.80
2019-06-01T14:01:14.792Z,29.80
2019-06-01T14:05:19.032Z,29.80
2019-06-01T14:09:23.265Z,29.80
2019-06-01T14:13:27.499Z,29.80
2019-06-01T14:17:31.722Z,29.80
2019-06-01T14:21:35.937Z,29.90
2019-06-01T14:25:40.177Z,29.90
2019-06-01T14:29:46.422Z,30.10
2019-06-01T14:33:50.864Z,30.10
2019-06-01T14:37:55.194Z,30.20
2019-06-01T14:41:59.520Z,30.30
2019-06-01T14:46:03.758Z,30.30
2019-06-01T14:50:08.894Z,30.30
2019-06-01T14:54:13.114Z,30.30
2019-06-01T14:58:17.358Z,30.30
2019-06-01T15:02:21.554Z,30.10
2019-06-01T15:06:25.914Z,30.00
2019-06-01T15:10:31.880Z,30.00
2019-06-01T15:14:36.064Z,29.90
2019-06-01T15:18:40.296Z,29.80
2019-06-01T15:22:44.505Z,29.80
2019-06-01T15:26:50.401Z,29.80
2019-06-01T15:30:54.900Z,29.80
2019-06-01T15:35:00.433Z,29.90
2019-06-01T15:39:21.007Z,29.80
2019-06-01T15:43:12.548Z,29.90
2019-06-01T15:47:16.766Z,30.00
2019-06-01T15:51:21.025Z,30.10
2019-06-01T15:55:25.355Z,30.40
2019-06-01T15:59:29.875Z,30.60
2019-06-01T16:03:34.616Z,30.80
2019-06-01T16:07:39.026Z,31.00
2019-06-01T16:11:43.283Z,31.20
2019-06-01T16:15:47.547Z,31.40
2019-06-01T16:19:51.862Z,31.80
2019-06-01T16:23:56.583Z,32.00
2019-06-01T16:28:01.005Z,32.20
2019-06-01T16:32:05.238Z,32.40
2019-06-01T16:36:09.437Z,32.60
2019-06-01T16:40:13.815Z,32.50
2019-06-01T16:44:19.920Z,32.40
2019-06-01T16:48:23.933Z,32.20
2019-06-01T16:52:28.519Z,32.00
2019-06-01T16:56:32.989Z,31.70
2019-06-01T17:00:37.607Z,31.40
2019-06-01T17:04:42.099Z,31.10
2019-06-01T17:08:46.403Z,30.80
2019-06-01T17:12:50.650Z,30.50
2019-06-01T17:16:54.894Z,30.30
2019-06-01T17:20:59.320Z,30.10
2019-06-01T17:25:03.761Z,29.90
2019-06-01T17:29:08.321Z,29.60
2019-06-01T17:33:12.789Z,29.30
2019-06-01T17:37:17.044Z,29.00
2019-06-01T17:41:21.293Z,28.80
2019-06-01T17:45:28.568Z,28.60
2019-06-01T17:49:32.820Z,28.50
2019-06-01T17:53:37.057Z,28.40
2019-06-01T17:57:41.290Z,28.30
2019-06-01T18:01:45.603Z,28.10
2019-06-01T18:05:49.857Z,28.00
2019-06-01T18:09:54.576Z,27.80
2019-06-01T18:13:58.886Z,27.60
2019-06-01T18:18:04.393Z,27.50
2019-06-01T18:22:08.928Z,27.30
2019-06-01T18:26:13.233Z,27.20
2019-06-01T18:30:18.101Z,27.00
2019-06-01T18:34:22.302Z,26.90
2019-06-01T18:38:26.549Z,26.80
2019-06-01T18:42:31.614Z,26.70
2019-06-01T18:46:35.845Z,26.60
2019-06-01T18:50:40.098Z,26.40
2019-06-01T18:54:44.424Z,26.30
2019-06-01T18:58:48.660Z,26.20
2019-06-01T19:02:52.978Z,26.10
2019-06-01T19:06:57.220Z,25.90
2019-06-01T19:11:01.455Z,25.80
2019-06-01T19:15:13.716Z,25.70
2019-06-01T19:19:12.694Z,25.50
2019-06-01T19:23:21.410Z,25.40
2019-06-01T19:27:22.943Z,25.20
2019-06-01T19:31:27.222Z,25.10
2019-06-01T19:35:31.865Z,24.90
2019-06-01T19:39:37.327Z,24.80
2019-06-01T19:43:41.964Z,24.60
2019-06-01T19:47:46.230Z,24.40
2019-06-01T19:51:50.732Z,24.30
2019-06-01T19:55:55.368Z,24.20
2019-06-01T19:59:59.602Z,24.00
2019-06-01T20:04:03.848Z,23.80
2019-06-01T20:08:08.087Z,23.70
2019-06-01T20:12:16.337Z,23.50
2019-06-01T20:16:20.194Z,23.30
2019-06-01T20:20:24.064Z,23.10
2019-06-01T20:24:28.355Z,23.00
2019-06-01T20:28:32.572Z,22.80
2019-06-01T20:32:36.816Z,22.70
2019-06-01T20:36:41.044Z,22.60
2019-06-01T20:40:45.296Z,22.50
2019-06-01T20:44:49.631Z,22.40
2019-06-01T20:48:53.935Z,22.30
2019-06-01T20:52:58.216Z,22.20
2019-06-01T20:57:02.436Z,22.20
2019-06-01T21:01:06.663Z,22.10
2019-06-01T21:05:11.155Z,22.00
2019-06-01T21:09:15.730Z,21.90
2019-06-01T21:13:20.238Z,21.90
2019-06-01T21:17:24.569Z,21.90
2019-06-01T21:21:28.779Z,21.80
2019-06-01T21:25:33.097Z,21.70
2019-06-01T21:29:37.416Z,21.70
2019-06-01T21:33:41.681Z,21.60
2019-06-01T21:37:45.905Z,21.60
2019-06-01T21:41:50.209Z,21.50
2019-06-01T21:45:54.509Z,21.40
2019-06-01T21:49:58.887Z,21.30
2019-06-01T21:54:04.352Z,21.20
2019-06-01T21:58:08.548Z,21.10
2019-06-01T22:02:13.896Z,21.00
2019-06-01T22:06:19.092Z,20.90
2019-06-01T22:10:25.659Z,20.80
2019-06-01T22:14:30.116Z,20.70
2019-06-01T22:18:34.353Z,20.50
2019-06-01T22:22:38.578Z,20.50
2019-06-01T22:26:42.874Z,20.30
2019-06-01T22:30:47.095Z,20.30
2019-06-01T22:34:51.471Z,20.20
2019-06-01T22:38:55.696Z,20.10
2019-06-01T22:42:59.921Z,20.00
2019-06-01T22:47:04.232Z,19.90
2019-06-01T22:51:08.471Z,19.80
2019-06-01T22:55:13.703Z,19.70
2019-06-01T22:59:17.935Z,19.60
2019-06-01T23:03:22.159Z,19.50
2019-06-01T23:07:27.266Z,19.40
2019-06-01T23:11:31.748Z,19.30
2019-06-01T23:15:36.123Z,19.20
2019-06-01T23:19:40.335Z,19.10
2019-06-01T23:23:44.563Z,19.00
2019-06-01T23:27:48.763Z,19.00
2019-06-01T23:31:52.987Z,18.90
2019-06-01T23:35:57.212Z,18.70
2019-06-01T23:40:01.441Z,18.70
2019-06-01T23:44:11.937Z,18.60
2019-06-01T23:48:11.519Z,18.50
2019-06-01T23:52:15.768Z,18.40
2019-06-01T23:56:19.998Z,18.30
